This is the latest recevied weather packets stored in our database for station/object kc7mrq. If no packets are shown the sender has not sent any weather packets the latest 10 day(s).
| Time | Temp. | Humidity | Pressure | Rain* | Wind** | Luminosity | Snow |
|---|---|---|---|---|---|---|---|
| 1777860040 | 17.22° C | 24% | 1005.5 hPa | 0 mm | - | - | - |
| 1777857339 | 18.33° C | 21% | 1005.9 hPa | 0 mm | - | - | - |
| 1777856435 | 18.33° C | 21% | 1006 hPa | 0 mm | - | - | - |
| 1777851029 | 18.89° C | 21% | 1006.5 hPa | 0 mm | - | - | - |
| 1777847425 | 20° C | 21% | 1006.9 hPa | 0 mm | - | - | - |
| 1777846520 | 19.44° C | 22% | 1007.1 hPa | 0 mm | - | - | - |
| 1777845621 | 19.44° C | 22% | 1007.2 hPa | 0 mm | - | - | - |
| 1777844729 | 18.89° C | 21% | 1007.5 hPa | 0 mm | - | - | - |
| 1777842035 | 18.89° C | 21% | 1008.2 hPa | 0 mm | - | - | - |
| 1777833064 | 17.22° C | 30% | 1010.4 hPa | 0 mm | - | - | - |
| 1777829487 | 16.11° C | 33% | 1011.1 hPa | 0 mm | - | - | - |
| 1777820416 | 10.56° C | 51% | 1012.7 hPa | 0 mm | - | - | - |
| 1777812357 | 3.89° C | 64% | 1013 hPa | 0 mm | - | - | - |
| 1777797935 | 6.11° C | 57% | 1012.9 hPa | 0 mm | - | - | - |
| 1777796143 | 6.67° C | 56% | 1012.9 hPa | 0 mm | - | - | - |
| 1777794325 | 7.22° C | 54% | 1012.8 hPa | 0 mm | - | - | - |
| 1777792533 | 7.22° C | 56% | 1012.7 hPa | 0 mm | - | - | - |
| 1777788913 | 7.78° C | 60% | 1012.7 hPa | 0 mm | - | - | - |
| 1777788010 | 7.78° C | 60% | 1012.8 hPa | 0 mm | - | - | - |
| 1777783510 | 8.89° C | 59% | 1012.9 hPa | 0 mm | - | - | - |
| 1777781706 | 9.44° C | 57% | 1012.8 hPa | 0 mm | - | - | - |
| 1777772760 | 14.44° C | 42% | 1011.5 hPa | 0 mm | - | - | - |
| 1777765554 | 16.67° C | 36% | 1011.4 hPa | 0 mm | - | - | - |
| 1777761048 | 16.67° C | 34% | 1012 hPa | 0 mm | - | - | - |
| 1777758347 | 16.67° C | 34% | 1012.5 hPa | 0 mm | - | - | - |
* Rain latest hour (hover to see other rain measurements)
** Current wind speed in m/s (hover to see current wind gust speed)